createdAt,value
2022-12-03T00:00:22.317Z,3.32
2022-12-03T00:03:30.323Z,2.86
2022-12-03T00:06:06.233Z,2.51
2022-12-03T00:08:54.161Z,3.03
2022-12-03T00:11:29.372Z,6.24
2022-12-03T00:14:17.313Z,8.43
2022-12-03T00:16:52.359Z,7.86
2022-12-03T00:19:40.196Z,6.29
2022-12-03T00:22:15.287Z,5.10
2022-12-03T00:25:03.137Z,4.28
2022-12-03T00:27:38.292Z,3.72
2022-12-03T00:30:33.140Z,3.25
2022-12-03T00:33:28.153Z,2.85
2022-12-03T00:36:17.336Z,3.54
2022-12-03T00:39:00.134Z,6.83
2022-12-03T00:41:55.155Z,8.78
2022-12-03T00:44:50.211Z,8.52
2022-12-03T00:47:38.141Z,6.71
2022-12-03T00:50:20.129Z,5.51
2022-12-03T00:53:15.314Z,4.68
2022-12-03T00:56:03.147Z,4.02
2022-12-03T00:58:39.251Z,3.54
2022-12-03T01:01:27.205Z,3.13
2022-12-03T01:04:02.274Z,3.39
2022-12-03T01:06:50.132Z,6.48
2022-12-03T01:09:25.268Z,8.62
2022-12-03T01:12:13.142Z,7.84
2022-12-03T01:14:48.270Z,6.31
2022-12-03T01:17:36.118Z,5.23
2022-12-03T01:20:42.708Z,4.50
2022-12-03T01:24:07.804Z,3.84
2022-12-03T01:27:03.142Z,3.33
2022-12-03T01:29:38.277Z,3.01
2022-12-03T01:32:26.145Z,2.72
2022-12-03T01:35:14.133Z,2.45
2022-12-03T01:37:48.542Z,3.09
2022-12-03T01:40:37.328Z,6.38
2022-12-03T01:43:12.569Z,8.61
2022-12-03T01:46:01.332Z,8.35
2022-12-03T01:48:45.128Z,6.73
2022-12-03T01:51:26.251Z,5.42
2022-12-03T01:54:08.123Z,4.60
2022-12-03T01:56:49.297Z,3.95
2022-12-03T01:59:35.133Z,3.49
2022-12-03T02:02:37.132Z,3.07
2022-12-03T02:05:22.307Z,2.72
2022-12-03T02:08:12.355Z,4.54
2022-12-03T02:10:55.109Z,7.62
2022-12-03T02:13:36.265Z,8.69
2022-12-03T02:16:17.164Z,7.29
2022-12-03T02:18:59.289Z,5.84
2022-12-03T02:22:05.128Z,4.90
2022-12-03T02:25:17.472Z,4.06
2022-12-03T02:28:01.115Z,3.51
2022-12-03T02:30:56.131Z,3.12
2022-12-03T02:33:44.111Z,2.77
2022-12-03T02:36:25.246Z,3.33
2022-12-03T02:39:06.127Z,6.38
2022-12-03T02:42:05.877Z,8.64
2022-12-03T02:44:47.129Z,8.31
2022-12-03T02:47:36.114Z,6.66
2022-12-03T02:50:19.133Z,5.48
2022-12-03T02:53:01.263Z,4.67
2022-12-03T02:55:42.104Z,4.14
2022-12-03T02:58:24.246Z,3.69
2022-12-03T03:01:06.370Z,3.33
2022-12-03T03:03:49.267Z,3.18
2022-12-03T03:06:32.306Z,5.46
2022-12-03T03:09:21.101Z,8.47
2022-12-03T03:12:03.111Z,8.90
2022-12-03T03:14:52.595Z,7.34
2022-12-03T03:17:28.612Z,6.12
2022-12-03T03:20:20.100Z,5.34
2022-12-03T03:23:01.116Z,4.72
2022-12-03T03:25:42.266Z,4.19
2022-12-03T03:28:23.109Z,3.78
2022-12-03T03:31:05.261Z,3.39
2022-12-03T03:33:54.106Z,3.07
2022-12-03T03:36:37.108Z,3.89
2022-12-03T03:39:25.100Z,7.34
2022-12-03T03:42:07.083Z,8.85
2022-12-03T03:45:02.107Z,7.60
2022-12-03T03:47:50.092Z,6.15
2022-12-03T03:50:25.329Z,5.24
2022-12-03T03:53:13.292Z,4.62
2022-12-03T03:55:48.242Z,4.15
2022-12-03T03:58:36.107Z,3.79
2022-12-03T04:01:11.301Z,3.49
2022-12-03T04:04:00.241Z,3.20
2022-12-03T04:06:42.094Z,3.93
2022-12-03T04:09:37.307Z,7.36
2022-12-03T04:12:45.092Z,8.86
2022-12-03T04:15:19.252Z,7.29
2022-12-03T04:18:25.094Z,5.93
2022-12-03T04:21:31.222Z,4.94
2022-12-03T04:24:10.187Z,4.26
2022-12-03T04:27:16.090Z,3.77
2022-12-03T04:29:50.531Z,3.39
2022-12-03T04:32:56.088Z,3.91
2022-12-03T04:35:49.166Z,7.48
2022-12-03T04:38:30.210Z,9.06
2022-12-03T04:41:11.100Z,7.84
2022-12-03T04:44:17.096Z,6.48
2022-12-03T04:46:51.536Z,5.53
2022-12-03T04:49:40.091Z,4.94
2022-12-03T04:52:16.641Z,4.47
2022-12-03T04:55:04.103Z,4.06
2022-12-03T04:57:38.574Z,3.73
2022-12-03T05:00:27.096Z,3.45
2022-12-03T05:03:08.138Z,4.05
2022-12-03T05:05:49.328Z,7.43
2022-12-03T05:08:32.303Z,9.01
2022-12-03T05:11:14.242Z,7.76
2022-12-03T05:13:57.101Z,6.45
2022-12-03T05:16:38.312Z,5.50
2022-12-03T05:19:19.263Z,4.91
2022-12-03T05:22:00.287Z,4.43
2022-12-03T05:24:42.266Z,4.06
2022-12-03T05:27:31.083Z,3.75
2022-12-03T05:30:06.285Z,3.43
2022-12-03T05:32:54.297Z,3.87
2022-12-03T05:35:36.081Z,7.08
2022-12-03T05:38:17.217Z,9.28
2022-12-03T05:41:05.089Z,9.02
2022-12-03T05:43:40.208Z,7.45
2022-12-03T05:46:28.132Z,6.28
2022-12-03T05:49:10.079Z,5.48
2022-12-03T05:51:58.851Z,4.90
2022-12-03T05:54:34.265Z,4.47
2022-12-03T05:57:22.268Z,4.08
2022-12-03T06:00:04.075Z,3.72
2022-12-03T06:02:59.253Z,3.39
2022-12-03T06:05:47.082Z,4.05
2022-12-03T06:08:22.242Z,7.33
2022-12-03T06:11:10.062Z,9.28
2022-12-03T06:13:45.420Z,8.55
2022-12-03T06:16:34.359Z,7.09
2022-12-03T06:19:23.272Z,6.02
2022-12-03T06:21:58.511Z,5.36
2022-12-03T06:24:47.528Z,4.83
2022-12-03T06:27:30.106Z,4.43
2022-12-03T06:30:22.061Z,4.10
2022-12-03T06:33:03.110Z,3.80
2022-12-03T06:35:45.211Z,3.53
2022-12-03T06:38:26.076Z,4.15
2022-12-03T06:41:14.073Z,7.50
2022-12-03T06:44:09.252Z,9.58
2022-12-03T06:46:57.126Z,9.16
2022-12-03T06:49:33.874Z,7.60
2022-12-03T06:52:22.076Z,6.44
2022-12-03T06:54:58.068Z,5.67
2022-12-03T06:57:46.077Z,5.11
2022-12-03T07:00:21.222Z,4.68
2022-12-03T07:03:09.291Z,4.30
2022-12-03T07:05:44.204Z,3.96
2022-12-03T07:08:32.043Z,3.69
2022-12-03T07:11:26.138Z,4.33
2022-12-03T07:14:16.048Z,7.97
2022-12-03T07:16:51.472Z,9.44
2022-12-03T07:19:40.061Z,8.26
2022-12-03T07:22:15.174Z,6.97
2022-12-03T07:25:03.070Z,6.10
2022-12-03T07:27:38.196Z,5.50
2022-12-03T07:30:26.114Z,5.03
2022-12-03T07:33:08.061Z,4.65
2022-12-03T07:35:49.501Z,4.32
2022-12-03T07:38:37.059Z,4.04
2022-12-03T07:41:11.521Z,3.80
2022-12-03T07:43:59.059Z,3.58
2022-12-03T07:46:40.076Z,4.27
2022-12-03T07:49:28.045Z,7.70
2022-12-03T07:52:09.060Z,9.38
2022-12-03T07:54:57.061Z,8.23
2022-12-03T07:57:52.047Z,6.87
2022-12-03T08:00:40.129Z,5.98
2022-12-03T08:03:15.197Z,5.42
2022-12-03T08:06:03.052Z,5.02
2022-12-03T08:08:38.412Z,4.70
2022-12-03T08:11:26.059Z,4.40
2022-12-03T08:14:08.032Z,4.13
2022-12-03T08:16:56.104Z,3.90
2022-12-03T08:19:38.040Z,3.72
2022-12-03T08:22:26.052Z,4.65
2022-12-03T08:25:01.250Z,8.01
2022-12-03T08:27:49.031Z,9.59
2022-12-03T08:30:24.212Z,8.45
2022-12-03T08:33:40.147Z,7.16
2022-12-03T08:36:26.954Z,6.13
2022-12-03T08:39:35.037Z,5.58
2022-12-03T08:42:48.055Z,5.17
2022-12-03T08:45:43.434Z,4.83
2022-12-03T08:48:44.039Z,4.59
2022-12-03T08:51:37.104Z,4.29
2022-12-03T08:54:19.224Z,4.08
2022-12-03T08:57:07.127Z,4.85
2022-12-03T08:59:45.457Z,8.13
2022-12-03T09:02:43.134Z,9.74
2022-12-03T09:05:45.041Z,8.50
2022-12-03T09:08:33.043Z,7.16
2022-12-03T09:11:08.167Z,6.37
2022-12-03T09:13:56.019Z,5.79
2022-12-03T09:16:30.289Z,5.32
2022-12-03T09:19:18.033Z,4.90
2022-12-03T09:21:52.175Z,4.59
2022-12-03T09:24:40.036Z,4.32
2022-12-03T09:27:15.208Z,4.10
2022-12-03T09:30:03.043Z,3.88
2022-12-03T09:32:38.218Z,4.63
2022-12-03T09:35:26.050Z,7.96
2022-12-03T09:38:01.354Z,9.69
2022-12-03T09:40:49.188Z,8.63
2022-12-03T09:43:33.498Z,7.35
2022-12-03T09:46:33.102Z,6.38
2022-12-03T09:49:15.328Z,5.86
2022-12-03T09:52:05.238Z,5.47
2022-12-03T09:54:54.340Z,5.17
2022-12-03T09:57:36.038Z,4.93
2022-12-03T10:00:32.085Z,4.73
2022-12-03T10:03:07.813Z,4.54
2022-12-03T10:05:56.041Z,4.34
2022-12-03T10:08:37.040Z,4.94
2022-12-03T10:11:18.169Z,8.28
2022-12-03T10:14:02.036Z,9.90
2022-12-03T10:16:44.352Z,8.74
2022-12-03T10:19:35.044Z,7.50
2022-12-03T10:22:16.215Z,6.58
2022-12-03T10:25:20.023Z,5.99
2022-12-03T10:28:09.237Z,5.46
2022-12-03T10:31:02.078Z,5.16
2022-12-03T10:33:58.988Z,4.83
2022-12-03T10:36:47.016Z,4.56
2022-12-03T10:39:23.187Z,4.36
2022-12-03T10:42:23.038Z,4.14
2022-12-03T10:45:19.411Z,3.95
2022-12-03T10:48:22.018Z,5.14
2022-12-03T10:51:26.153Z,8.72
2022-12-03T10:54:26.030Z,9.87
2022-12-03T10:57:01.137Z,8.44
2022-12-03T10:59:49.194Z,7.29
2022-12-03T11:02:30.271Z,6.53
2022-12-03T11:05:33.015Z,5.99
2022-12-03T11:08:08.223Z,5.58
2022-12-03T11:11:20.191Z,5.21
2022-12-03T11:14:04.472Z,4.80
2022-12-03T11:16:52.174Z,4.51
2022-12-03T11:19:48.300Z,4.28
2022-12-03T11:22:55.281Z,4.04
2022-12-03T11:25:33.215Z,5.07
2022-12-03T11:28:21.010Z,8.48
2022-12-03T11:30:56.967Z,9.89
2022-12-03T11:33:48.008Z,8.72
2022-12-03T11:36:41.993Z,7.46
2022-12-03T11:39:57.222Z,6.57
2022-12-03T11:42:36.171Z,5.96
2022-12-03T11:45:40.022Z,5.59
2022-12-03T11:48:22.686Z,5.27
2022-12-03T11:51:11.220Z,4.98
2022-12-03T11:53:47.303Z,4.70
2022-12-03T11:56:36.993Z,4.46
2022-12-03T11:59:19.410Z,4.26
2022-12-03T12:02:06.999Z,5.01
2022-12-03T12:04:46.826Z,8.24
2022-12-03T12:07:44.489Z,10.14
2022-12-03T12:10:19.163Z,9.20
2022-12-03T12:13:07.119Z,7.83
2022-12-03T12:15:50.220Z,6.93
2022-12-03T12:18:45.243Z,6.30
2022-12-03T12:21:50.153Z,5.87
2022-12-03T12:24:45.098Z,5.47
2022-12-03T12:27:24.172Z,5.10
2022-12-03T12:30:17.013Z,4.76
2022-12-03T12:33:27.142Z,4.44
2022-12-03T12:36:16.010Z,4.14
2022-12-03T12:38:51.225Z,3.91
2022-12-03T12:41:39.113Z,4.63
2022-12-03T12:44:23.982Z,8.11
2022-12-03T12:47:07.023Z,9.78
2022-12-03T12:49:55.500Z,8.67
2022-12-03T12:52:40.094Z,7.37
2022-12-03T12:55:21.553Z,6.45
2022-12-03T12:58:07.170Z,5.85
2022-12-03T13:00:49.177Z,5.36
2022-12-03T13:03:34.022Z,4.97
2022-12-03T13:06:21.660Z,4.60
2022-12-03T13:09:27.803Z,4.28
2022-12-03T13:12:08.346Z,3.98
2022-12-03T13:15:00.865Z,4.63
2022-12-03T13:17:37.185Z,8.02
2022-12-03T13:25:00.742Z,7.99
2022-12-03T13:28:43.855Z,6.63
2022-12-03T13:32:07.979Z,5.80
2022-12-03T13:35:37.008Z,5.25
2022-12-03T13:38:49.267Z,4.79
2022-12-03T13:42:21.269Z,4.39
2022-12-03T13:45:29.920Z,4.03
2022-12-03T13:48:44.174Z,5.25
2022-12-03T13:51:28.444Z,8.70
2022-12-03T13:54:52.302Z,9.77
2022-12-03T13:58:03.763Z,8.09
2022-12-03T14:01:03.352Z,6.58
2022-12-03T14:06:56.047Z,5.09
2022-12-03T14:09:37.003Z,4.65
2022-12-03T14:12:34.040Z,4.29
2022-12-03T14:15:12.711Z,3.97
2022-12-03T14:18:02.752Z,4.63
2022-12-03T14:20:37.437Z,7.88
2022-12-03T14:23:26.163Z,9.87
2022-12-03T14:26:01.599Z,9.24
2022-12-03T14:28:50.155Z,7.65
2022-12-03T14:31:25.849Z,6.52
2022-12-03T14:34:13.985Z,5.74
2022-12-03T14:36:55.534Z,5.15
2022-12-03T14:39:44.187Z,4.69
2022-12-03T14:42:26.186Z,4.30
2022-12-03T14:45:16.968Z,3.97
2022-12-03T14:47:51.612Z,4.49
2022-12-03T14:50:40.162Z,7.66
2022-12-03T14:53:27.067Z,9.71
2022-12-03T14:56:08.307Z,9.09
2022-12-03T14:58:50.062Z,7.60
2022-12-03T15:01:33.913Z,6.40
2022-12-03T15:04:16.049Z,5.61
2022-12-03T15:06:57.135Z,4.99
2022-12-03T15:09:37.970Z,4.55
2022-12-03T15:12:25.974Z,5.13
2022-12-03T15:15:00.698Z,8.17
2022-12-03T15:17:51.981Z,9.55
2022-12-03T15:20:26.418Z,8.23
2022-12-03T15:23:14.714Z,6.76
2022-12-03T15:25:57.019Z,5.75
2022-12-03T15:28:38.099Z,4.99
2022-12-03T15:31:21.998Z,4.41
2022-12-03T15:34:22.069Z,5.55
2022-12-03T15:37:03.956Z,8.66
2022-12-03T15:39:48.382Z,9.61
2022-12-03T15:42:31.962Z,8.17
2022-12-03T15:45:15.713Z,6.80
2022-12-03T15:47:59.466Z,5.79
2022-12-03T15:50:53.945Z,5.03
2022-12-03T15:53:42.982Z,4.47
2022-12-03T15:56:24.996Z,4.06
2022-12-03T15:59:20.414Z,4.58
2022-12-03T16:02:08.073Z,7.99
2022-12-03T16:04:46.032Z,9.50
2022-12-03T16:07:35.141Z,8.27
2022-12-03T16:10:11.196Z,6.87
2022-12-03T16:12:58.956Z,5.91
2022-12-03T16:15:35.810Z,5.22
2022-12-03T16:18:26.617Z,4.70
2022-12-03T16:21:02.092Z,4.31
2022-12-03T16:23:49.966Z,4.85
2022-12-03T16:26:30.016Z,8.02
2022-12-03T16:29:17.958Z,9.63
2022-12-03T16:31:59.197Z,8.39
2022-12-03T16:34:39.943Z,7.07
2022-12-03T16:37:27.969Z,6.08
2022-12-03T16:40:03.040Z,5.41
2022-12-03T16:42:50.954Z,4.87
2022-12-03T16:45:51.101Z,4.42
2022-12-03T16:48:32.158Z,5.26
2022-12-03T16:51:12.960Z,8.20
2022-12-03T16:53:55.169Z,9.83
2022-12-03T16:56:37.959Z,9.05
2022-12-03T16:59:19.075Z,7.38
2022-12-03T17:01:59.977Z,6.21
2022-12-03T17:04:41.134Z,5.34
2022-12-03T17:07:21.938Z,4.71
2022-12-03T17:10:03.099Z,5.15
2022-12-03T17:13:08.340Z,7.92
2022-12-03T17:15:55.713Z,9.58
2022-12-03T17:18:31.377Z,8.47
2022-12-03T17:21:20.957Z,7.07
2022-12-03T17:23:55.452Z,6.09
2022-12-03T17:26:42.934Z,5.41
2022-12-03T17:29:37.938Z,4.84
2022-12-03T17:32:32.940Z,4.42
2022-12-03T17:35:27.945Z,5.13
2022-12-03T17:38:15.943Z,8.50
2022-12-03T17:40:52.414Z,9.79
2022-12-03T17:43:40.076Z,8.45
2022-12-03T17:46:16.123Z,7.07
2022-12-03T17:49:03.955Z,6.10
2022-12-03T17:51:39.535Z,5.42
2022-12-03T17:54:43.224Z,4.88
2022-12-03T17:57:22.083Z,4.38
2022-12-03T18:00:09.942Z,4.03
2022-12-03T18:02:46.085Z,4.64
2022-12-03T18:05:33.889Z,7.82
2022-12-03T18:08:11.060Z,9.80
2022-12-03T18:10:58.966Z,9.50
2022-12-03T18:13:40.955Z,7.91
2022-12-03T18:16:35.965Z,6.66
2022-12-03T18:19:23.934Z,5.74
2022-12-03T18:21:59.080Z,5.09
2022-12-03T18:24:51.576Z,4.55
2022-12-03T18:27:33.163Z,4.07
2022-12-03T18:30:14.948Z,4.46
2022-12-03T18:33:09.922Z,7.63
2022-12-03T18:36:00.952Z,9.68
2022-12-03T18:38:45.075Z,10.08
2022-12-03T18:41:41.138Z,8.44
2022-12-03T18:44:29.510Z,6.96
2022-12-03T18:47:18.027Z,5.94
2022-12-03T18:50:14.022Z,5.25
2022-12-03T18:52:57.336Z,4.66
2022-12-03T18:55:41.936Z,4.30
2022-12-03T18:58:29.927Z,6.19
2022-12-03T19:01:11.984Z,9.04
2022-12-03T19:03:54.060Z,9.88
2022-12-03T19:06:37.931Z,8.47
2022-12-03T19:09:22.265Z,7.01
2022-12-03T19:12:07.587Z,6.11
2022-12-03T19:14:53.568Z,5.39
2022-12-03T19:17:34.931Z,5.49
2022-12-03T19:20:24.962Z,8.48
2022-12-03T19:23:04.055Z,10.03
2022-12-03T19:25:53.019Z,8.84
2022-12-03T19:28:37.585Z,7.25
2022-12-03T19:31:33.694Z,6.13
2022-12-03T19:34:09.060Z,5.39
2022-12-03T19:36:58.073Z,4.84
2022-12-03T19:39:33.481Z,4.36
2022-12-03T19:42:16.213Z,4.83
2022-12-03T19:44:51.154Z,7.79
2022-12-03T19:47:31.932Z,9.70
2022-12-03T19:50:22.606Z,9.48
2022-12-03T19:53:08.380Z,7.86
2022-12-03T19:55:52.672Z,6.55
2022-12-03T19:58:39.692Z,5.71
2022-12-03T20:01:26.432Z,5.05
2022-12-03T20:04:09.967Z,4.59
2022-12-03T20:06:57.940Z,4.23
2022-12-03T20:09:33.400Z,6.15
2022-12-03T20:12:21.177Z,8.97
2022-12-03T20:15:09.220Z,9.71
2022-12-03T20:17:58.038Z,8.04
2022-12-03T20:20:39.224Z,6.64
2022-12-03T20:23:20.901Z,5.75
2022-12-03T20:26:03.352Z,5.07
2022-12-03T20:28:47.072Z,4.60
2022-12-03T20:31:32.305Z,5.06
2022-12-03T20:34:13.885Z,7.96
2022-12-03T20:36:56.037Z,9.80
2022-12-03T20:39:37.089Z,9.43
2022-12-03T20:42:18.502Z,7.82
2022-12-03T20:45:01.550Z,6.64
2022-12-03T20:47:43.670Z,5.72
2022-12-03T20:50:29.585Z,5.09
2022-12-03T20:53:26.911Z,4.55
2022-12-03T20:56:25.033Z,5.18
2022-12-03T20:59:18.039Z,8.42
2022-12-03T21:02:00.064Z,10.06
2022-12-03T21:04:55.909Z,9.34
2022-12-03T21:07:51.616Z,7.59
2022-12-03T21:10:48.565Z,6.46
2022-12-03T21:13:37.092Z,5.59
2022-12-03T21:16:39.294Z,5.00
2022-12-03T21:19:24.336Z,4.46
2022-12-03T21:22:12.111Z,5.14
2022-12-03T21:24:53.974Z,8.18
2022-12-03T21:27:35.529Z,9.93
2022-12-03T21:30:20.494Z,9.03
2022-12-03T21:33:11.910Z,7.39
2022-12-03T21:35:49.888Z,6.29
2022-12-03T21:38:41.322Z,5.53
2022-12-03T21:41:18.319Z,4.96
2022-12-03T21:44:08.795Z,6.61
2022-12-03T21:47:12.280Z,9.19
2022-12-03T21:49:50.907Z,9.13
2022-12-03T21:52:25.953Z,7.65
2022-12-03T21:55:14.903Z,6.41
2022-12-03T21:57:50.417Z,5.62
2022-12-03T22:00:39.092Z,5.08
2022-12-03T22:03:20.894Z,5.54
2022-12-03T22:06:08.887Z,8.62
2022-12-03T22:08:44.575Z,10.03
2022-12-03T22:11:35.901Z,8.83
2022-12-03T22:14:10.561Z,7.32
2022-12-03T22:16:58.885Z,6.21
2022-12-03T22:19:54.083Z,5.48
2022-12-03T22:22:42.028Z,4.90
2022-12-03T22:25:23.872Z,5.35
2022-12-03T22:28:18.873Z,8.30
2022-12-03T22:31:08.940Z,10.05
2022-12-03T22:33:50.280Z,9.17
2022-12-03T22:36:37.963Z,7.57
2022-12-03T22:39:14.005Z,6.44
2022-12-03T22:42:02.898Z,5.63
2022-12-03T22:44:44.071Z,5.02
2022-12-03T22:47:24.875Z,4.62
2022-12-03T22:50:12.884Z,6.43
2022-12-03T22:52:53.880Z,9.16
2022-12-03T22:55:41.892Z,9.97
2022-12-03T22:58:16.357Z,8.59
2022-12-03T23:01:05.883Z,7.20
2022-12-03T23:03:46.949Z,6.20
2022-12-03T23:06:29.015Z,5.43
2022-12-03T23:09:11.085Z,4.93
2022-12-03T23:11:52.016Z,6.22
2022-12-03T23:14:32.884Z,8.99
2022-12-03T23:17:28.876Z,10.01
2022-12-03T23:20:16.861Z,8.46
2022-12-03T23:22:58.871Z,7.03
2022-12-03T23:25:54.675Z,6.05
2022-12-03T23:28:45.870Z,5.35
2022-12-03T23:31:30.066Z,6.11
2022-12-03T23:34:17.918Z,9.13
2022-12-03T23:36:59.875Z,10.22
2022-12-03T23:39:47.852Z,8.84
2022-12-03T23:42:28.889Z,7.44
2022-12-03T23:45:17.870Z,6.47
2022-12-03T23:47:59.872Z,5.78
2022-12-03T23:50:47.886Z,5.86
2022-12-03T23:53:24.180Z,8.64
2022-12-03T23:56:16.865Z,10.11
2022-12-03T23:58:52.045Z,8.79
